createdAt,value
2018-03-24T00:00:58.927Z,72.38
2018-03-24T00:03:27.279Z,72.41
2018-03-24T00:05:55.622Z,72.52
2018-03-24T00:08:23.992Z,72.66
2018-03-24T00:10:52.310Z,72.72
2018-03-24T00:13:20.679Z,72.72
2018-03-24T00:15:49.002Z,72.87
2018-03-24T00:18:17.357Z,72.87
2018-03-24T00:20:45.697Z,72.84
2018-03-24T00:23:14.045Z,72.89
2018-03-24T00:25:42.378Z,73.01
2018-03-24T00:28:10.742Z,73.08
2018-03-24T00:30:39.082Z,73.15
2018-03-24T00:33:07.418Z,73.25
2018-03-24T00:35:35.774Z,73.31
2018-03-24T00:38:04.114Z,73.30
2018-03-24T00:40:32.458Z,73.31
2018-03-24T00:43:00.790Z,73.40
2018-03-24T00:45:29.142Z,73.49
2018-03-24T00:47:57.474Z,73.58
2018-03-24T00:50:25.822Z,73.74
2018-03-24T00:52:54.150Z,73.85
2018-03-24T00:55:22.515Z,74.03
2018-03-24T00:57:50.838Z,74.03
2018-03-24T01:00:19.162Z,74.15
2018-03-24T01:02:47.510Z,74.09
2018-03-24T01:05:15.834Z,74.12
2018-03-24T01:07:44.173Z,74.16
2018-03-24T01:10:12.498Z,74.17
2018-03-24T01:12:40.846Z,74.04
2018-03-24T01:15:09.175Z,73.97
2018-03-24T01:17:37.530Z,73.94
2018-03-24T01:20:05.859Z,73.95
2018-03-24T01:22:34.214Z,73.91
2018-03-24T01:25:02.550Z,73.95
2018-03-24T01:27:30.898Z,73.94
2018-03-24T01:29:59.221Z,73.98
2018-03-24T01:32:27.578Z,74.07
2018-03-24T01:34:55.906Z,74.15
2018-03-24T01:37:24.266Z,74.62
2018-03-24T01:39:52.594Z,74.76
2018-03-24T01:42:20.919Z,74.56
2018-03-24T01:44:49.271Z,74.78
2018-03-24T01:47:17.585Z,74.96
2018-03-24T01:49:45.933Z,75.20
2018-03-24T01:52:14.259Z,75.44
2018-03-24T01:54:42.609Z,75.90
2018-03-24T01:57:10.938Z,76.29
2018-03-24T01:59:39.290Z,76.13
2018-03-24T02:02:07.614Z,75.92
2018-03-24T02:04:35.962Z,76.10
2018-03-24T02:07:04.285Z,75.86
2018-03-24T02:09:32.639Z,75.82
2018-03-24T02:12:00.957Z,76.13
2018-03-24T02:14:29.307Z,75.99
2018-03-24T02:16:57.634Z,76.18
2018-03-24T02:19:25.977Z,76.30
2018-03-24T02:21:54.309Z,76.04
2018-03-24T02:24:22.708Z,75.83
2018-03-24T02:26:51.088Z,75.53
2018-03-24T02:29:19.501Z,75.44
2018-03-24T02:31:47.814Z,75.52
2018-03-24T02:34:16.187Z,75.49
2018-03-24T02:36:44.553Z,75.39
2018-03-24T02:39:12.881Z,75.17
2018-03-24T02:41:41.348Z,75.28
2018-03-24T02:44:09.662Z,75.37
2018-03-24T02:46:38.177Z,75.49
2018-03-24T02:49:06.562Z,75.99
2018-03-24T02:51:34.923Z,76.08
2018-03-24T02:54:03.272Z,76.15
2018-03-24T02:56:31.670Z,76.22
2018-03-24T02:59:00.034Z,76.36
2018-03-24T03:01:28.550Z,76.49
2018-03-24T03:03:56.992Z,76.24
2018-03-24T03:06:25.372Z,76.23
2018-03-24T03:08:53.751Z,76.58
2018-03-24T03:11:22.086Z,76.58
2018-03-24T03:13:50.458Z,76.57
2018-03-24T03:16:18.807Z,76.44
2018-03-24T03:18:47.185Z,76.24
2018-03-24T03:21:15.534Z,76.13
2018-03-24T03:23:43.910Z,76.15
2018-03-24T03:26:12.275Z,76.04
2018-03-24T03:28:40.637Z,76.09
2018-03-24T03:31:24.693Z,76.27
2018-03-24T03:33:53.077Z,76.67
2018-03-24T03:36:21.418Z,76.66
2018-03-24T03:38:49.786Z,76.56
2018-03-24T03:41:18.155Z,76.98
2018-03-24T03:43:46.536Z,76.80
2018-03-24T03:46:14.910Z,76.67
2018-03-24T03:48:43.275Z,76.43
2018-03-24T03:51:11.598Z,76.55
2018-03-24T03:53:39.962Z,76.60
2018-03-24T03:56:08.284Z,76.45
2018-03-24T03:58:36.626Z,76.43
2018-03-24T04:01:04.942Z,76.49
2018-03-24T04:03:33.286Z,76.44
2018-03-24T04:06:01.610Z,76.34
2018-03-24T04:08:29.966Z,76.28
2018-03-24T04:10:58.291Z,76.22
2018-03-24T04:13:26.611Z,76.41
2018-03-24T04:15:54.959Z,76.48
2018-03-24T04:18:23.278Z,76.20
2018-03-24T04:20:51.614Z,76.42
2018-03-24T04:23:19.938Z,76.54
2018-03-24T04:25:48.278Z,76.91
2018-03-24T04:28:16.594Z,77.03
2018-03-24T04:30:44.929Z,77.18
2018-03-24T04:33:13.254Z,76.89
2018-03-24T04:35:41.599Z,76.92
2018-03-24T04:38:09.919Z,77.11
2018-03-24T04:40:38.256Z,77.13
2018-03-24T04:43:06.578Z,77.33
2018-03-24T04:45:34.938Z,77.95
2018-03-24T04:48:03.259Z,78.35
2018-03-24T04:50:31.582Z,78.29
2018-03-24T04:52:59.930Z,78.43
2018-03-24T04:55:28.254Z,78.42
2018-03-24T04:57:56.607Z,78.34
2018-03-24T05:00:24.929Z,78.09
2018-03-24T05:02:53.270Z,77.95
2018-03-24T05:05:21.599Z,77.78
2018-03-24T05:07:49.943Z,77.57
2018-03-24T05:10:18.264Z,77.55
2018-03-24T05:12:46.606Z,77.61
2018-03-24T05:15:14.922Z,77.90
2018-03-24T05:17:43.266Z,78.10
2018-03-24T05:20:11.586Z,78.18
2018-03-24T05:22:39.934Z,78.45
2018-03-24T05:25:08.262Z,78.92
2018-03-24T05:27:36.590Z,78.40
2018-03-24T05:30:04.974Z,78.03
2018-03-24T05:32:33.273Z,78.22
2018-03-24T05:35:01.625Z,77.99
2018-03-24T05:37:29.942Z,78.25
2018-03-24T05:39:58.314Z,78.45
2018-03-24T05:42:26.639Z,78.37
2018-03-24T05:44:54.982Z,78.26
2018-03-24T05:47:23.309Z,78.41
2018-03-24T05:49:51.653Z,78.44
2018-03-24T05:52:19.970Z,78.64
2018-03-24T05:54:48.313Z,78.94
2018-03-24T05:57:16.634Z,78.71
2018-03-24T05:59:44.991Z,78.84
2018-03-24T06:02:13.305Z,79.02
2018-03-24T06:04:41.626Z,78.85
2018-03-24T06:07:09.966Z,79.10
2018-03-24T06:09:38.286Z,79.17
2018-03-24T06:12:06.626Z,79.02
2018-03-24T06:14:34.950Z,78.84
2018-03-24T06:17:03.294Z,78.78
2018-03-24T06:19:31.610Z,78.62
2018-03-24T06:21:59.977Z,78.52
2018-03-24T06:24:28.302Z,78.49
2018-03-24T06:26:56.644Z,78.32
2018-03-24T06:29:24.971Z,77.99
2018-03-24T06:31:58.870Z,78.08
2018-03-24T06:34:27.194Z,78.02
2018-03-24T06:36:59.945Z,78.20
2018-03-24T06:39:28.262Z,78.55
2018-03-24T06:41:56.581Z,78.79
2018-03-24T06:44:24.917Z,79.13
2018-03-24T06:46:53.238Z,78.67
2018-03-24T06:49:21.582Z,78.45
2018-03-24T06:51:49.901Z,78.10
2018-03-24T06:54:18.250Z,78.15
2018-03-24T06:56:46.578Z,78.18
2018-03-24T06:59:14.926Z,78.25
2018-03-24T07:01:43.245Z,78.16
2018-03-24T07:04:11.591Z,78.02
2018-03-24T07:06:41.054Z,77.65
2018-03-24T07:09:09.774Z,77.57
2018-03-24T07:11:38.320Z,77.41
2018-03-24T07:14:07.676Z,77.57
2018-03-24T07:16:36.421Z,77.80
2018-03-24T07:19:05.640Z,77.94
2018-03-24T07:21:34.353Z,77.87
2018-03-24T07:24:03.149Z,78.33
2018-03-24T07:26:31.934Z,78.74
2018-03-24T07:29:00.902Z,78.76
2018-03-24T07:31:29.732Z,78.47
2018-03-24T07:34:01.310Z,78.43
2018-03-24T07:36:31.962Z,78.37
2018-03-24T07:39:00.995Z,78.16
2018-03-24T07:41:30.174Z,77.96
2018-03-24T07:44:02.049Z,77.86
2018-03-24T07:46:30.894Z,77.59
2018-03-24T07:49:00.134Z,77.37
2018-03-24T07:51:29.784Z,77.16
2018-03-24T07:54:00.021Z,77.04
2018-03-24T07:56:29.777Z,76.60
2018-03-24T07:58:58.503Z,76.30
2018-03-24T08:01:27.098Z,75.99
2018-03-24T08:03:55.526Z,75.65
2018-03-24T08:06:24.175Z,75.32
2018-03-24T08:08:52.786Z,74.87
2018-03-24T08:11:21.313Z,74.67
2018-03-24T08:13:49.834Z,74.39
2018-03-24T08:16:18.262Z,74.05
2018-03-24T08:18:46.695Z,73.96
2018-03-24T08:21:15.182Z,73.76
2018-03-24T08:23:43.713Z,73.56
2018-03-24T08:26:13.162Z,72.82
2018-03-24T08:28:41.727Z,72.75
2018-03-24T08:31:10.168Z,73.13
2018-03-24T08:33:39.219Z,72.23
2018-03-24T08:36:07.665Z,71.88
2018-03-24T08:38:36.940Z,71.88
2018-03-24T08:41:05.376Z,71.47
2018-03-24T08:43:33.746Z,71.31
2018-03-24T08:46:02.075Z,71.18
2018-03-24T08:48:30.441Z,70.79
2018-03-24T08:50:58.774Z,70.72
2018-03-24T08:53:27.099Z,69.53
2018-03-24T08:55:55.454Z,69.97
2018-03-24T08:58:23.782Z,69.71
2018-03-24T09:00:52.130Z,69.55
2018-03-24T09:03:20.464Z,69.58
2018-03-24T09:05:48.812Z,69.60
2018-03-24T09:08:17.142Z,70.16
2018-03-24T09:10:45.545Z,69.95
2018-03-24T09:13:13.917Z,69.99
2018-03-24T09:15:42.270Z,69.49
2018-03-24T09:18:10.589Z,69.49
2018-03-24T09:20:38.941Z,69.16
2018-03-24T09:23:07.277Z,69.18
2018-03-24T09:25:35.777Z,68.50
2018-03-24T09:28:04.137Z,68.59
2018-03-24T09:30:32.454Z,68.47
2018-03-24T09:33:00.787Z,68.67
2018-03-24T09:35:30.226Z,68.61
2018-03-24T09:37:58.602Z,68.70
2018-03-24T09:40:26.954Z,68.12
2018-03-24T09:42:55.281Z,68.17
2018-03-24T09:45:23.634Z,68.45
2018-03-24T09:47:51.967Z,68.42
2018-03-24T09:50:20.318Z,68.52
2018-03-24T09:52:48.685Z,68.60
2018-03-24T09:55:16.999Z,67.60
2018-03-24T09:57:45.331Z,67.46
2018-03-24T10:00:13.679Z,67.17
2018-03-24T10:02:42.007Z,66.79
2018-03-24T10:05:10.358Z,66.46
2018-03-24T10:07:38.685Z,66.05
2018-03-24T10:10:07.041Z,66.40
2018-03-24T10:12:35.376Z,66.99
2018-03-24T10:15:03.718Z,66.85
2018-03-24T10:17:32.050Z,66.22
2018-03-24T10:20:00.409Z,66.28
2018-03-24T10:25:28.792Z,65.64
2018-03-24T10:27:57.206Z,65.21
2018-03-24T10:30:25.565Z,64.90
2018-03-24T10:32:53.894Z,65.01
2018-03-24T10:35:22.304Z,64.46
2018-03-24T10:37:56.318Z,63.44
2018-03-24T10:40:24.662Z,63.38
2018-03-24T10:42:58.551Z,63.15
2018-03-24T10:45:26.897Z,62.93
2018-03-24T10:47:55.304Z,61.69
2018-03-24T10:50:23.655Z,60.77
2018-03-24T10:52:51.977Z,61.22
2018-03-24T10:55:20.329Z,59.99
2018-03-24T10:57:49.317Z,60.37
2018-03-24T11:00:17.680Z,60.31
2018-03-24T11:02:46.037Z,58.97
2018-03-24T11:05:14.345Z,58.65
2018-03-24T11:07:42.674Z,57.76
2018-03-24T11:10:11.026Z,58.06
2018-03-24T11:12:39.446Z,57.97
2018-03-24T11:15:07.790Z,55.73
2018-03-24T11:17:36.970Z,54.16
2018-03-24T11:20:05.297Z,53.02
2018-03-24T11:22:33.663Z,51.67
2018-03-24T11:25:01.998Z,52.27
2018-03-24T11:27:30.346Z,51.27
2018-03-24T11:29:58.670Z,50.94
2018-03-24T11:32:27.023Z,52.12
2018-03-24T11:34:55.353Z,50.97
2018-03-24T11:37:23.693Z,51.70
2018-03-24T11:39:52.023Z,51.24
2018-03-24T11:42:20.378Z,51.59
2018-03-24T11:44:48.701Z,51.80
2018-03-24T11:47:17.054Z,50.31
2018-03-24T11:49:45.382Z,49.39
2018-03-24T11:52:13.733Z,50.16
2018-03-24T11:54:44.538Z,49.46
2018-03-24T11:57:13.437Z,50.02
2018-03-24T11:59:41.762Z,50.62
2018-03-24T12:02:10.112Z,49.87
2018-03-24T12:04:38.440Z,48.86
2018-03-24T12:07:06.794Z,49.32
2018-03-24T12:09:35.126Z,48.54
2018-03-24T12:12:03.478Z,49.02
2018-03-24T12:14:31.807Z,47.62
2018-03-24T12:17:00.378Z,47.61
2018-03-24T12:19:28.703Z,46.94
2018-03-24T12:21:57.050Z,46.75
2018-03-24T12:24:25.399Z,46.94
2018-03-24T12:26:53.733Z,47.12
2018-03-24T12:29:22.074Z,47.24
2018-03-24T12:31:50.426Z,47.74
2018-03-24T12:34:18.754Z,47.06
2018-03-24T12:36:48.908Z,47.05
2018-03-24T12:39:17.233Z,48.03
2018-03-24T12:41:45.593Z,48.32
2018-03-24T12:44:13.938Z,49.29
2018-03-24T12:46:42.287Z,48.89
2018-03-24T12:49:10.618Z,48.85
2018-03-24T12:51:38.973Z,48.32
2018-03-24T12:54:07.310Z,49.15
2018-03-24T12:56:35.658Z,49.63
2018-03-24T12:59:03.989Z,50.07
2018-03-24T13:01:32.338Z,49.64
2018-03-24T13:04:01.777Z,49.14
2018-03-24T13:06:30.155Z,49.59
2018-03-24T13:08:58.621Z,49.58
2018-03-24T13:11:26.971Z,49.43
2018-03-24T13:13:55.311Z,49.37
2018-03-24T13:16:24.621Z,49.31
2018-03-24T13:18:52.958Z,49.21
2018-03-24T13:21:21.325Z,49.08
2018-03-24T13:23:49.658Z,49.26
2018-03-24T13:26:18.938Z,49.27
2018-03-24T13:28:47.285Z,48.64
2018-03-24T13:31:15.618Z,48.72
2018-03-24T13:33:43.971Z,48.33
2018-03-24T13:36:12.302Z,48.84
2018-03-24T13:38:40.650Z,49.67
2018-03-24T13:41:08.983Z,48.02
2018-03-24T13:43:37.329Z,47.53
2018-03-24T13:46:05.691Z,47.39
2018-03-24T13:48:34.038Z,47.92
2018-03-24T13:51:02.371Z,47.20
2018-03-24T13:53:30.714Z,47.10
2018-03-24T13:55:59.042Z,46.35
2018-03-24T13:58:27.395Z,45.72
2018-03-24T14:00:55.722Z,46.37
2018-03-24T14:03:24.072Z,46.39
2018-03-24T14:05:52.494Z,46.47
2018-03-24T14:08:20.846Z,45.51
2018-03-24T14:10:49.169Z,45.45
2018-03-24T14:13:17.523Z,45.83
2018-03-24T14:15:46.149Z,46.02
2018-03-24T14:18:14.524Z,44.97
2018-03-24T14:20:42.846Z,45.37
2018-03-24T14:23:11.202Z,44.62
2018-03-24T14:25:39.530Z,44.70
2018-03-24T14:28:07.906Z,44.90
2018-03-24T14:30:36.309Z,45.01
2018-03-24T14:33:04.650Z,44.75
2018-03-24T14:35:32.977Z,44.91
2018-03-24T14:38:01.333Z,46.29
2018-03-24T14:40:29.658Z,46.24
2018-03-24T14:42:58.014Z,46.17
2018-03-24T14:45:26.338Z,45.31
2018-03-24T14:47:54.682Z,45.08
2018-03-24T14:50:23.031Z,44.36
2018-03-24T14:52:51.370Z,43.92
2018-03-24T14:55:19.729Z,45.25
2018-03-24T14:57:48.065Z,44.95
2018-03-24T15:00:16.408Z,44.71
2018-03-24T15:02:44.750Z,44.87
2018-03-24T15:05:13.079Z,44.66
2018-03-24T15:07:41.430Z,45.11
2018-03-24T15:10:09.759Z,44.86
2018-03-24T15:12:38.119Z,45.42
2018-03-24T15:15:06.442Z,45.34
2018-03-24T15:17:34.790Z,44.81
2018-03-24T15:20:03.120Z,45.32
2018-03-24T15:22:31.486Z,45.40
2018-03-24T15:24:59.813Z,45.99
2018-03-24T15:27:28.143Z,45.02
2018-03-24T15:30:08.295Z,45.91
2018-03-24T15:32:43.414Z,45.37
2018-03-24T15:35:23.427Z,45.59
2018-03-24T15:37:52.810Z,46.41
2018-03-24T15:40:21.162Z,46.97
2018-03-24T15:42:49.525Z,46.47
2018-03-24T15:45:17.862Z,47.19
2018-03-24T15:47:46.210Z,47.21
2018-03-24T15:50:14.546Z,46.65
2018-03-24T15:52:42.874Z,46.66
2018-03-24T15:55:11.218Z,46.75
2018-03-24T15:57:39.563Z,46.55
2018-03-24T16:00:08.030Z,46.22
2018-03-24T16:02:36.352Z,46.22
2018-03-24T16:05:04.709Z,46.54
2018-03-24T16:07:33.056Z,46.75
2018-03-24T16:10:01.418Z,46.87
2018-03-24T16:12:29.742Z,46.39
2018-03-24T16:14:58.117Z,45.89
2018-03-24T16:17:26.489Z,45.93
2018-03-24T16:19:54.842Z,45.88
2018-03-24T16:22:23.171Z,46.11
2018-03-24T16:24:51.518Z,46.42
2018-03-24T16:27:19.842Z,47.35
2018-03-24T16:29:48.291Z,46.88
2018-03-24T16:32:16.616Z,46.36
2018-03-24T16:34:44.966Z,50.63
2018-03-24T16:37:13.302Z,49.10
2018-03-24T16:39:41.659Z,46.71
2018-03-24T16:42:09.982Z,46.71
2018-03-24T16:44:38.338Z,46.32
2018-03-24T16:47:06.683Z,46.54
2018-03-24T16:49:35.037Z,46.14
2018-03-24T16:52:03.367Z,46.33
2018-03-24T16:54:31.727Z,46.69
2018-03-24T16:57:00.054Z,46.10
2018-03-24T16:59:28.414Z,46.33
2018-03-24T17:01:56.731Z,46.30
2018-03-24T17:04:25.082Z,46.56
2018-03-24T17:06:54.958Z,46.62
2018-03-24T17:09:23.309Z,47.02
2018-03-24T17:11:51.647Z,47.56
2018-03-24T17:14:19.994Z,47.68
2018-03-24T17:16:48.321Z,47.54
2018-03-24T17:19:16.673Z,47.75
2018-03-24T17:21:45.006Z,47.51
2018-03-24T17:24:13.370Z,47.82
2018-03-24T17:26:42.014Z,47.48
2018-03-24T17:29:10.371Z,47.83
2018-03-24T17:31:38.694Z,48.54
2018-03-24T17:34:07.055Z,49.24
2018-03-24T17:36:35.393Z,49.85
2018-03-24T17:39:03.742Z,50.52
2018-03-24T17:41:32.145Z,51.02
2018-03-24T17:44:00.496Z,51.38
2018-03-24T17:46:29.774Z,51.96
2018-03-24T17:48:58.127Z,52.38
2018-03-24T17:51:26.467Z,53.15
2018-03-24T17:53:54.807Z,53.27
2018-03-24T17:56:24.055Z,53.58
2018-03-24T17:58:52.382Z,53.86
2018-03-24T18:01:20.734Z,53.69
2018-03-24T18:03:49.061Z,53.88
2018-03-24T18:06:17.418Z,54.03
2018-03-24T18:08:45.755Z,54.21
2018-03-24T18:11:14.106Z,54.25
2018-03-24T18:13:42.442Z,54.44
2018-03-24T18:16:11.720Z,54.65
2018-03-24T18:18:40.064Z,54.50
2018-03-24T18:21:08.403Z,54.64
2018-03-24T18:23:36.740Z,54.84
2018-03-24T18:26:05.091Z,54.77
2018-03-24T18:28:33.418Z,54.88
2018-03-24T18:31:01.770Z,55.16
2018-03-24T18:33:30.114Z,55.25
2018-03-24T18:35:58.458Z,55.26
2018-03-24T18:38:26.785Z,55.26
2018-03-24T18:40:55.143Z,55.34
2018-03-24T18:43:23.478Z,55.66
2018-03-24T18:45:51.833Z,56.07
2018-03-24T18:48:20.163Z,56.12
2018-03-24T18:50:48.513Z,56.07
2018-03-24T18:53:16.851Z,55.93
2018-03-24T18:55:45.204Z,56.18
2018-03-24T18:58:13.534Z,56.27
2018-03-24T19:00:41.927Z,56.28
2018-03-24T19:03:10.255Z,56.53
2018-03-24T19:05:39.593Z,56.74
2018-03-24T19:08:07.912Z,56.35
2018-03-24T19:10:36.266Z,56.60
2018-03-24T19:13:04.595Z,56.97
2018-03-24T19:15:35.654Z,57.24
2018-03-24T19:18:03.986Z,57.38
2018-03-24T19:20:32.338Z,57.39
2018-03-24T19:23:00.682Z,57.80
2018-03-24T19:25:29.038Z,57.70
2018-03-24T19:27:57.366Z,57.75
2018-03-24T19:30:25.722Z,58.23
2018-03-24T19:32:54.059Z,58.50
2018-03-24T19:35:22.412Z,59.02
2018-03-24T19:37:50.743Z,59.25
2018-03-24T19:40:19.095Z,59.28
2018-03-24T19:42:47.418Z,59.29
2018-03-24T19:45:15.772Z,59.14
2018-03-24T19:47:44.110Z,58.97
2018-03-24T19:50:12.463Z,58.77
2018-03-24T19:52:40.794Z,58.65
2018-03-24T19:55:09.159Z,58.49
2018-03-24T19:57:37.483Z,58.39
2018-03-24T20:00:05.816Z,58.51
2018-03-24T20:02:34.219Z,58.62
2018-03-24T20:05:02.534Z,58.76
2018-03-24T20:07:30.881Z,58.68
2018-03-24T20:09:59.218Z,58.65
2018-03-24T20:12:27.578Z,58.46
2018-03-24T20:14:56.066Z,58.94
2018-03-24T20:17:24.465Z,58.80
2018-03-24T20:19:52.818Z,58.86
2018-03-24T20:22:21.163Z,58.89
2018-03-24T20:24:49.490Z,59.47
2018-03-24T20:27:17.837Z,59.75
2018-03-24T20:29:46.186Z,60.09
2018-03-24T20:32:14.537Z,60.30
2018-03-24T20:34:42.853Z,60.24
2018-03-24T20:37:11.198Z,61.37
2018-03-24T20:39:39.522Z,60.78
2018-03-24T20:42:07.866Z,60.86
2018-03-24T20:44:36.187Z,61.31
2018-03-24T20:47:04.531Z,61.36
2018-03-24T20:49:32.854Z,61.84
2018-03-24T20:52:01.194Z,61.78
2018-03-24T20:54:29.515Z,61.86
2018-03-24T20:56:57.855Z,62.18
2018-03-24T20:59:26.177Z,62.84
2018-03-24T21:01:54.598Z,63.03
2018-03-24T21:04:22.912Z,63.23
2018-03-24T21:06:51.253Z,63.18
2018-03-24T21:09:19.577Z,63.21
2018-03-24T21:11:47.951Z,63.44
2018-03-24T21:14:16.270Z,63.74
2018-03-24T21:16:44.614Z,63.70
2018-03-24T21:19:12.934Z,63.42
2018-03-24T21:21:42.337Z,63.68
2018-03-24T21:24:10.650Z,63.69
2018-03-24T21:26:38.990Z,63.64
2018-03-24T21:29:07.309Z,63.82
2018-03-24T21:31:35.654Z,63.97
2018-03-24T21:34:03.998Z,63.85
2018-03-24T21:36:32.346Z,64.04
2018-03-24T21:39:00.665Z,65.23
2018-03-24T21:41:37.694Z,63.51
2018-03-24T21:44:08.282Z,62.78
2018-03-24T21:46:36.626Z,63.01
2018-03-24T21:49:04.950Z,63.39
2018-03-24T21:51:33.319Z,63.64
2018-03-24T21:54:01.633Z,63.84
2018-03-24T21:56:30.938Z,63.91
2018-03-24T21:58:59.258Z,64.39
2018-03-24T22:01:27.750Z,64.39
2018-03-24T22:03:56.075Z,65.17
2018-03-24T22:06:25.370Z,65.21
2018-03-24T22:08:53.690Z,64.86
2018-03-24T22:11:22.030Z,65.00
2018-03-24T22:13:50.353Z,64.92
2018-03-24T22:16:18.673Z,64.98
2018-03-24T22:18:47.014Z,64.92
2018-03-24T22:21:15.437Z,64.98
2018-03-24T22:23:43.730Z,64.67
2018-03-24T22:26:12.053Z,64.62
2018-03-24T22:28:40.398Z,64.77
2018-03-24T22:31:08.725Z,64.78
2018-03-24T22:33:37.070Z,65.09
2018-03-24T22:36:05.441Z,65.31
2018-03-24T22:38:33.799Z,65.47
2018-03-24T22:41:02.122Z,65.54
2018-03-24T22:43:30.466Z,65.57
2018-03-24T22:45:58.786Z,65.82
2018-03-24T22:48:27.147Z,65.80
2018-03-24T22:50:55.473Z,65.91
2018-03-24T22:53:23.822Z,65.95
2018-03-24T22:55:52.233Z,66.64
2018-03-24T22:58:20.607Z,66.18
2018-03-24T23:00:48.927Z,65.77
2018-03-24T23:03:17.269Z,66.23
2018-03-24T23:05:45.598Z,66.38
2018-03-24T23:08:13.942Z,66.48
2018-03-24T23:10:42.270Z,66.50
2018-03-24T23:13:10.609Z,66.55
2018-03-24T23:15:38.941Z,66.46
2018-03-24T23:18:07.278Z,66.62
2018-03-24T23:20:35.598Z,67.09
2018-03-24T23:23:03.949Z,67.52
2018-03-24T23:25:32.266Z,67.93
2018-03-24T23:28:00.606Z,68.05
2018-03-24T23:30:28.929Z,68.21
2018-03-24T23:32:57.270Z,68.25
2018-03-24T23:35:25.590Z,68.30
2018-03-24T23:37:53.938Z,69.57
2018-03-24T23:40:22.829Z,68.93
2018-03-24T23:42:51.169Z,68.75
2018-03-24T23:45:19.681Z,68.97
2018-03-24T23:47:48.506Z,68.81
2018-03-24T23:50:16.874Z,68.70
2018-03-24T23:52:45.377Z,68.59
2018-03-24T23:55:13.721Z,68.95
2018-03-24T23:57:42.522Z,68.94
